Nearby METAR Reports

 

CYUL - Montreal/Dorval, Quebec, Canada
Distance from station: ENE 6km
Updated: 08/10/2022 01:00 EDT
Overcast
Overcast
 Wind from NNW
Wind: NNW 7 km/h
Temperature: 18°C
Dew Point: 15°C
Humidity: 83%
Barometer: 1017.6 hPa
Clouds: Overcast
Visibility: 24 km
Cloud details: Few Clouds 853 m
Overcast 1585 m
2022/08/10 05:00 CYUL 100500Z 34004KT 15SM FEW028 OVC052 18/15 A3005 RMK SC2SC6 SLP180 DENSITY ALT 400FT
CWVQ - Ste Anne De Bell, Quebec, Canada
Distance from station: WSW 10km
Updated: 08/10/2022 01:00 EDT

 Wind from NNW
Wind: NNW 4 km/h
Temperature: 17°C
Dew Point: 16°C
Humidity: 94%
2022/08/10 05:00 CWVQ 100500Z AUTO 33002KT 17/16 RMK AO1 SLP179 T01660157 55000
 
CWTA - Mc Tavish (aut), Quebec, Canada
Distance from station: ENE 18km
Updated: 08/10/2022 01:00 EDT

 Wind from WNW
Wind: WNW 6 km/h
Temperature: 17°C
Dew Point: 15°C
Humidity: 88%
2022/08/10 05:00 CWTA 100500Z AUTO 30003KT 17/15 RMK AO1 SLP179 T01740149 53001
CYMX - Montreal/Mirabel, Quebec, Canada
Distance from station: NW 29km
Updated: 08/10/2022 01:00 EDT
Overcast
Overcast
 Wind from WNW
Wind: WNW 4 km/h
Temperature: 16°C
Dew Point: 15°C
Humidity: 94%
Barometer: 1017.9 hPa
Clouds: Overcast
Visibility: 40 km
Cloud details: Overcast 1524 m
2022/08/10 05:00 CYMX 100500Z 30002KT 25SM OVC050 16/15 A3006 RMK SC8 SLP184 DENSITY ALT 300FT
 
CYHU - Saint Hubert Arp, Quebec, Canada
Distance from station: ENE 31km
Updated: 08/10/2022 01:00 EDT
Overcast
Overcast
 Wind from calm
Wind: Calm
Temperature: 17°C
Dew Point: 15°C
Humidity: 88%
Barometer: 1017.6 hPa
Clouds: Overcast
Visibility: 14 km
Cloud details: Overcast 1524 m
2022/08/10 05:00 CYHU 100500Z AUTO 00000KT 9SM OVC050 17/15 A3005 RMK SLP178 DENSITY ALT 300FT
CWIT - St Clothilde (a, Quebec, Canada
Distance from station: SSE 33km
Updated: 08/10/2022 01:00 EDT

 Wind from W
Wind: W 2 km/h
Temperature: 16°C
Dew Point: 16°C
Humidity: 100%
2022/08/10 05:00 CWIT 100500Z AUTO 27001KT 16/16 RMK AO1 SLP175 T01630155 50001
 
CWIZ - L'acadie, Quebec, Canada
Distance from station: ESE 41km
Updated: 08/10/2022 01:00 EDT

 Wind from calm
Wind: Calm
Temperature: 17°C
Dew Point: 16°C
Humidity: 94%
2022/08/10 05:00 CWIZ 100500Z AUTO 00000KT 17/16 RMK AO1 T01670159
CWHM - Varennes, Quebec, Canada
Distance from station: NE 45km
Updated: 10/25/2016 10:00 EDT
NOT Current

 Wind from W
Wind: W 19 km/h, Gust: 28 km/h
Temperature: 4°C
Wind Chill: 0°C
Dew Point: -2°C
Humidity: 65%
2016/10/25 14:00 CWHM 251400Z AUTO 28010G15KT 04/M02 RMK AO1 PK WND 28018/1302 T00391017
 
CWEW - L'assomption, Quebec, Canada
Distance from station: NE 50km
Updated: 08/10/2022 01:00 EDT

 Wind from NNW
Wind: NNW 4 km/h
Temperature: 17°C
Dew Point: 16°C
Humidity: 94%
2022/08/10 05:00 CWEW 100500Z AUTO 33002KT 17/16 RMK AO1 SLP185 T01680155 55000
CWBZ - St Anicet, Quebec, Canada
Distance from station: SW 52km
Updated: 08/10/2022 01:00 EDT

 Wind from calm
Wind: Calm
Temperature: 15°C
Dew Point: 15°C
Humidity: 100%
2022/08/10 05:00 CWBZ 100500Z AUTO 00000KT 15/15 RMK AO1 SLP175 T01540153 51001
 
KFSO - Highgate, Vermont, USA
Distance from station: SE 79km
Updated: 08/10/2022 01:35 EDT
Overcast
Overcast
 Wind from calm
Wind: Calm
Temperature: 17°C
Dew Point: 16°C
Humidity: 94%
Barometer: 1017.9 hPa
Clouds: Overcast
Visibility: 16 km
Cloud details: Overcast 1311 m
2022/08/10 05:35 KFSO 100535Z AUTO 00000KT 10SM OVC043 17/16 A3006 RMK AO2 T01660160
CMGB - Granby, Quebec, Canada
Distance from station: E 81km
Updated: 08/10/2022 01:00 EDT

 Wind from WNW
Wind: WNW 2 km/h
Temperature: 17°C
Dew Point: 15°C
Humidity: 88%
2022/08/10 05:00 CMGB 100500Z AUTO 30001KT 17/15 RMK AO1 SLP178 T01660151 53001
 
CWJT - St Jovite (autob, Quebec, Canada
Distance from station: NW 88km
Updated: 08/10/2022 01:00 EDT

 Wind from calm
Wind: Calm
Temperature: 16°C
2022/08/10 05:00 CWJT 100500Z AUTO 00000KT 16/ RMK AO1 SLP178 T0156 53002
CWFQ - Frelighsburg, Quebec, Canada
Distance from station: ESE 90km
Updated: 08/10/2022 01:00 EDT

 Wind from W
Wind: W 2 km/h
Temperature: 15°C
Dew Point: 15°C
Humidity: 100%
2022/08/10 05:00 CWFQ 100500Z AUTO 28001KT 15/15 RMK AO1 SLP180 T01510147 51001
 
KPBG - Plattsburgh Afb, New York, USA
Distance from station: SSE 93km
Updated: 08/10/2022 01:53 EDT
Overcast
Overcast
 Wind from calm
Wind: Calm
Temperature: 17°C
Dew Point: 14°C
Humidity: 83%
Barometer: 1017.6 hPa
Clouds: Overcast
Visibility: 16 km
Cloud details: Overcast 1463 m
2022/08/10 05:53 KPBG 100553Z AUTO 00000KT 10SM OVC048 17/14 A3005 RMK AO2 SLP175 T01670144 10178 20161 58002
KMSS - Massena, New York, USA
Distance from station: SW 100km
Updated: 08/10/2022 01:53 EDT
Overcast
Overcast
 Wind from calm
Wind: Calm
Temperature: 17°C
Dew Point: 16°C
Humidity: 94%
Barometer: 1018.3 hPa
Clouds: Overcast
Visibility: 16 km
Cloud details: Overcast 1433 m
2022/08/10 05:53 KMSS 100553Z AUTO 00000KT 10SM OVC047 17/16 A3007 RMK AO2 SLP182 T01670156 10183 20167 58001
 
CWBS - Lac St Pierre (a, Quebec, Canada
Distance from station: NE 106km
Updated: 08/10/2022 00:00 EDT
NOT Current

 Wind from E
Wind: E 15 km/h
Temperature: 18°C
Dew Point: 14°C
Humidity: 78%
2022/08/10 04:00 CWBS 100400Z AUTO 08008KT 18/14 RMK AO1 T01840142
KBTV - Burlington, Vermont, USA
Distance from station: SSE 121km
Updated: 08/10/2022 00:54 EDT
Overcast
Overcast
 Wind from calm
Wind: Calm
Temperature: 18°C
Dew Point: 15°C
Humidity: 83%
Barometer: 1017.9 hPa
Clouds: Overcast
Visibility: 16 km
Cloud details: Overcast 488 m
2022/08/10 04:54 KBTV 100454Z 00000KT 10SM OVC016 18/15 A3006 RMK AO2 SLP179 T01830150 402440172
 
KSLK - Saranac Lake, New York, USA
Distance from station: SSW 121km
Updated: 08/10/2022 01:51 EDT
Overcast
Overcast
 Wind from calm
Wind: Calm
Temperature: 14°C
Dew Point: 14°C
Humidity: 100%
Barometer: 1018.3 hPa
Clouds: Overcast
Visibility: 16 km
Cloud details: Mostly cloudy 366 m
Overcast 1036 m
2022/08/10 05:51 KSLK 100551Z AUTO 00000KT 10SM BKN012 OVC034 14/14 A3007 RMK AO2 SLP180 T01440144 10167 20139 50000
CWNQ - Nicolet (autob), Quebec, Canada
Distance from station: NE 123km
Updated: 08/10/2022 01:00 EDT

 
Temperature: 16°C
Dew Point: 14°C
Humidity: 88%
2022/08/10 05:00 CWNQ 100500Z AUTO 16/14 RMK AO1 T01620144 55000
 
KMWN - Mount Washington, New Hampshire, USA
Distance from station: SE 237km
Updated: 08/10/2022 00:50 EDT
Fog, Overcast
Fog, Overcast
 Wind from WSW
Wind: WSW 39 km/h, Gust: 48 km/h
Temperature: 11°C
Dew Point: 11°C
Humidity: 100%
Summary: Fog
Clouds: Overcast
Visibility: 0 km
Cloud details: Overcast 0 m
2022/08/10 04:50 KMWN 100450Z 24021G26KT 0SM FG VV000 11/11 RMK 401520104
CYVR - Vancouver Intl A, British Columbia, Canada
Distance from station: NW 3676km
Updated: 08/10/2022 01:00 EDT
Few Clouds
Few Clouds
 Wind from E
Wind: E 17 km/h
Temperature: 20°C
Dew Point: 18°C
Humidity: 88%
Barometer: 1011.5 hPa
Clouds: Few Clouds
Visibility: 32 km
Cloud details: Few Clouds 4877 m
2022/08/10 05:00 CYVR 100500Z 10009KT 20SM FEW160 20/18 A2987 RMK AC1 SLP117 DENSITY ALT 700FT